Time;durP1;ratioP1;P1;durP2;ratioP2;P2;SDS_P1;SDS_P2;PMS_P1;PMS_P2;Temp;Humidity;BMP_temperature;BMP_pressure;BME280_temperature;BME280_humidity;BME280_pressure;Samples;Min_cycle;Max_cycle;Signal;HPM_P1;HPM_P2
2021/08/08 00:02:03;;;;;;;7.22;2.40;;;;;;;17.32;75.97;100067.47;5102831;28;20035;-74
2021/08/08 00:04:29;;;;;;;14.75;8.73;;;;;;;17.51;76.44;100077.41;5089963;28;20200;-74
2021/08/08 00:06:54;;;;;;;21.92;11.57;;;;;;;17.56;75.41;100077.88;5090306;28;20337;-74
2021/08/08 00:09:19;;;;;;;23.10;12.30;;;;;;;17.90;74.52;100075.09;5082341;28;20059;-74
2021/08/08 00:11:45;;;;;;;10.00;6.28;;;;;;;17.57;75.66;100087.47;5082128;28;20036;-74
2021/08/08 00:14:11;;;;;;;17.10;4.53;;;;;;;17.02;78.44;100085.69;5097323;28;20042;-74
2021/08/08 00:16:36;;;;;;;10.00;4.30;;;;;;;17.44;76.83;100096.44;5101754;28;20040;-74
2021/08/08 00:19:02;;;;;;;12.63;6.13;;;;;;;18.20;71.67;100093.72;5108390;28;20050;-74
2021/08/08 00:21:27;;;;;;;6.28;4.88;;;;;;;18.12;73.62;100098.84;5086648;28;20039;-74
2021/08/08 00:23:53;;;;;;;3.70;3.33;;;;;;;18.52;71.71;100092.78;5122598;28;20106;-74
2021/08/08 00:26:18;;;;;;;5.70;3.15;;;;;;;17.79;75.78;100095.34;5086622;28;20026;-74
2021/08/08 00:28:45;;;;;;;4.85;2.92;;;;;;;18.28;73.89;100094.88;5104494;28;20220;-74
2021/08/08 00:31:11;;;;;;;5.78;3.08;;;;;;;18.69;69.58;100091.34;5098579;28;20039;-74
2021/08/08 00:33:36;;;;;;;9.10;3.10;;;;;;;18.79;69.30;100100.19;5101418;28;20289;-74
2021/08/08 00:36:02;;;;;;;7.43;3.03;;;;;;;18.58;72.44;100100.22;5101648;28;20039;-73
2021/08/08 00:38:27;;;;;;;4.32;2.80;;;;;;;18.73;69.09;100095.38;5089350;28;20042;-74
2021/08/08 00:40:53;;;;;;;9.95;3.42;;;;;;;18.87;69.61;100099.53;5086568;28;20042;-74
2021/08/08 00:43:18;;;;;;;7.38;3.65;;;;;;;19.49;66.42;100108.22;5083873;28;20040;-74
2021/08/08 00:45:43;;;;;;;11.45;4.72;;;;;;;18.94;69.31;100108.63;5063665;28;20282;-74
2021/08/08 00:48:09;;;;;;;6.05;3.70;;;;;;;19.46;66.61;100105.81;5081429;28;20044;-74
2021/08/08 00:50:34;;;;;;;11.23;5.78;;;;;;;18.91;70.78;100100.94;5080837;28;20036;-74
2021/08/08 00:53:00;;;;;;;10.27;4.15;;;;;;;19.46;67.00;100115.63;5047331;28;20086;-74
2021/08/08 00:55:25;;;;;;;9.95;2.75;;;;;;;19.99;63.94;100130.34;5099033;28;20036;-74
2021/08/08 00:57:51;;;;;;;8.68;2.63;;;;;;;19.92;64.55;100120.28;5080388;28;20039;-74
2021/08/08 01:00:16;;;;;;;5.05;1.80;;;;;;;20.24;63.24;100123.63;5089017;28;20127;-74
2021/08/08 01:05:14;;;;;;;6.18;2.60;;;;;;;20.21;63.87;100131.88;5096329;28;20234;-74
2021/08/08 01:07:44;;;;;;;9.70;2.88;;;;;;;19.49;66.20;100140.06;5091866;28;20036;-74
2021/08/08 01:10:09;;;;;;;11.52;3.80;;;;;;;19.45;66.80;100138.69;5101494;28;20027;-74
2021/08/08 01:12:36;;;;;;;9.25;3.83;;;;;;;19.32;66.93;100146.91;5080785;28;20031;-74
2021/08/08 01:15:02;;;;;;;7.53;3.00;;;;;;;19.52;66.50;100149.59;5078315;28;20032;-74
2021/08/08 01:17:27;;;;;;;12.00;3.42;;;;;;;19.40;67.03;100146.22;5063149;28;20269;-74
2021/08/08 01:19:57;;;;;;;13.25;3.47;;;;;;;19.08;67.98;100155.22;5064755;28;20108;-74
2021/08/08 01:22:23;;;;;;;11.68;2.50;;;;;;;19.72;65.66;100158.44;5078094;28;20266;-74
2021/08/08 01:24:48;;;;;;;18.77;4.90;;;;;;;18.99;69.74;100155.97;5063872;28;20036;-74
2021/08/08 01:27:14;;;;;;;9.30;3.42;;;;;;;19.02;68.19;100160.19;5060798;28;20073;-74
2021/08/08 01:29:39;;;;;;;6.70;2.85;;;;;;;19.71;65.47;100162.88;5080910;28;20050;-74
2021/08/08 01:32:05;;;;;;;11.05;3.72;;;;;;;19.47;66.46;100165.09;5048570;28;20042;-74
2021/08/08 01:34:30;;;;;;;11.55;3.88;;;;;;;18.98;69.30;100159.63;5081951;28;20091;-74
2021/08/08 01:36:56;;;;;;;8.00;2.75;;;;;;;19.63;66.05;100168.06;5046687;28;20261;-74
2021/08/08 01:39:21;;;;;;;6.15;2.50;;;;;;;19.82;65.16;100169.09;5081344;28;20035;-74
2021/08/08 01:41:51;;;;;;;9.60;2.95;;;;;;;19.64;65.81;100174.22;5063672;28;20036;-74
2021/08/08 01:44:20;;;;;;;17.98;4.18;;;;;;;19.80;65.05;100187.81;5060593;28;20086;-74
2021/08/08 01:46:51;;;;;;;16.73;3.13;;;;;;;19.18;67.71;100184.44;5042672;28;20027;-74
2021/08/08 01:49:18;;;;;;;7.88;2.58;;;;;;;19.56;66.16;100193.50;5062511;28;20028;-74
2021/08/08 01:51:44;;;;;;;14.82;2.75;;;;;;;19.47;66.77;100186.34;5058116;28;20459;-74
2021/08/08 01:54:09;;;;;;;10.50;3.05;;;;;;;19.66;65.80;100191.69;5054908;28;20020;-74
2021/08/08 01:56:34;;;;;;;11.65;3.30;;;;;;;19.09;68.70;100198.50;5061534;28;20039;-74
2021/08/08 01:59:00;;;;;;;10.85;3.08;;;;;;;19.35;67.40;100198.88;5046954;28;20276;-74
2021/08/08 02:01:29;;;;;;;11.90;2.97;;;;;;;19.64;66.08;100204.25;5076309;28;20072;-74
2021/08/08 02:03:54;;;;;;;14.23;3.70;;;;;;;19.52;66.41;100208.03;5064972;28;20031;-74
2021/08/08 02:06:19;;;;;;;8.13;2.90;;;;;;;19.22;67.24;100214.19;5062126;28;20016;-74
2021/08/08 02:08:45;;;;;;;13.60;3.03;;;;;;;19.12;67.68;100212.34;5100096;28;20035;-74
2021/08/08 02:11:10;;;;;;;14.82;3.10;;;;;;;19.08;67.50;100215.38;5080640;28;20027;-74
2021/08/08 02:13:36;;;;;;;13.05;3.03;;;;;;;19.10;67.86;100222.25;5080684;28;20028;-74
2021/08/08 02:16:01;;;;;;;10.07;2.80;;;;;;;19.26;67.04;100220.91;5080274;28;20040;-74
2021/08/08 02:18:27;;;;;;;12.15;2.92;;;;;;;19.97;64.75;100220.00;5081748;28;20036;-74
2021/08/08 02:20:52;;;;;;;12.93;3.08;;;;;;;19.20;67.18;100227.59;5091195;28;20050;-74
2021/08/08 02:23:18;;;;;;;8.20;2.75;;;;;;;18.92;67.50;100227.31;5063604;28;20032;-74
2021/08/08 02:25:43;;;;;;;11.13;2.92;;;;;;;19.21;67.02;100239.03;5098046;28;20044;-74
2021/08/08 02:28:09;;;;;;;7.32;2.20;;;;;;;19.12;67.48;100244.19;5100470;28;20038;-74
2021/08/08 02:30:35;;;;;;;7.40;2.38;;;;;;;19.21;67.22;100239.91;5081570;28;20104;-74
2021/08/08 02:33:00;;;;;;;9.32;3.08;;;;;;;18.83;68.41;100243.16;5065019;28;20036;-74
2021/08/08 02:35:26;;;;;;;6.40;2.22;;;;;;;19.52;65.64;100243.38;5064077;28;20036;-74
2021/08/08 02:37:51;;;;;;;9.18;2.42;;;;;;;19.31;66.22;100245.25;5042903;28;20316;-74
2021/08/08 02:40:17;;;;;;;8.52;2.85;;;;;;;18.45;69.11;100258.66;5062747;28;20099;-74
2021/08/08 02:42:42;;;;;;;8.50;2.75;;;;;;;18.90;67.52;100253.16;5061841;28;20316;-72
2021/08/08 02:45:08;;;;;;;6.28;2.40;;;;;;;19.42;65.87;100260.25;5066377;28;20046;-72
2021/08/08 02:47:33;;;;;;;7.25;2.58;;;;;;;19.22;66.51;100262.81;5062711;28;20048;-72
2021/08/08 02:49:59;;;;;;;4.60;2.33;;;;;;;19.44;65.60;100266.25;5062127;28;20051;-72
2021/08/08 02:52:25;;;;;;;9.15;2.92;;;;;;;18.63;67.35;100266.03;5064220;28;20294;-72
2021/08/08 02:54:50;;;;;;;6.82;2.88;;;;;;;18.48;68.23;100274.31;5065236;28;20028;-72
2021/08/08 02:57:16;;;;;;;6.88;2.60;;;;;;;19.10;66.32;100267.38;5064283;28;20039;-72
2021/08/08 02:59:41;;;;;;;17.75;3.00;;;;;;;18.58;68.03;100277.88;5081683;28;20048;-72
2021/08/08 03:02:07;;;;;;;10.35;3.10;;;;;;;18.81;66.88;100285.78;5099596;28;20235;-72
2021/08/08 03:04:32;;;;;;;7.18;3.00;;;;;;;18.03;70.08;100280.59;5071219;28;20041;-72
2021/08/08 03:06:58;;;;;;;6.03;2.90;;;;;;;18.24;68.76;100287.75;5069612;28;20031;-72
2021/08/08 03:09:23;;;;;;;8.30;2.90;;;;;;;19.08;66.57;100281.72;5080628;28;20035;-72
2021/08/08 03:11:48;;;;;;;7.82;2.80;;;;;;;19.20;65.85;100293.13;5062769;28;20328;-72
2021/08/08 03:14:15;;;;;;;5.13;2.22;;;;;;;18.83;67.76;100291.78;5098405;28;20036;-72
2021/08/08 03:16:41;;;;;;;9.68;2.85;;;;;;;19.07;67.06;100294.16;5061148;28;20028;-72
2021/08/08 03:19:07;;;;;;;8.20;2.92;;;;;;;18.55;67.00;100301.97;5053703;28;20113;-72
2021/08/08 03:21:32;;;;;;;7.78;2.42;;;;;;;18.33;68.54;100302.91;5097782;28;20122;-72
2021/08/08 03:23:57;;;;;;;10.25;2.92;;;;;;;18.23;67.97;100310.78;5092599;28;20044;-72
2021/08/08 03:26:23;;;;;;;5.97;2.35;;;;;;;18.30;68.98;100304.97;5075276;28;20028;-72
2021/08/08 03:28:48;;;;;;;11.07;2.80;;;;;;;18.57;66.36;100308.03;5083723;28;20319;-72
2021/08/08 03:31:17;;;;;;;7.57;2.60;;;;;;;18.12;69.07;100308.16;5084530;28;20028;-72
2021/08/08 03:33:43;;;;;;;6.72;2.30;;;;;;;18.37;67.27;100309.66;5068593;28;20047;-72
2021/08/08 03:36:11;;;;;;;7.63;2.33;;;;;;;18.96;66.89;100318.13;5081227;28;20249;-72
2021/08/08 03:38:36;;;;;;;8.07;3.08;;;;;;;18.57;67.13;100320.41;5101025;28;20349;-72
2021/08/08 03:41:01;;;;;;;10.15;2.83;;;;;;;18.12;68.99;100323.19;5072649;28;20040;-72
2021/08/08 03:43:27;;;;;;;8.57;2.70;;;;;;;18.51;68.39;100313.81;5084049;28;20061;-72
2021/08/08 03:45:52;;;;;;;11.40;2.95;;;;;;;19.01;66.78;100323.88;5081874;28;20027;-72
2021/08/08 03:48:18;;;;;;;5.82;2.38;;;;;;;18.87;67.45;100319.72;5082162;28;20062;-72
2021/08/08 03:50:43;;;;;;;7.45;2.40;;;;;;;18.41;68.59;100334.97;5083434;28;20348;-72
2021/08/08 03:53:08;;;;;;;9.32;3.00;;;;;;;17.47;72.48;100330.94;5059429;28;20024;-72
2021/08/08 03:55:34;;;;;;;9.27;3.05;;;;;;;17.72;72.28;100339.59;5083114;28;20044;-72
2021/08/08 03:57:59;;;;;;;10.32;3.33;;;;;;;18.22;69.82;100337.41;5084663;28;20049;-72
2021/08/08 04:00:25;;;;;;;9.30;2.88;;;;;;;17.95;71.20;100343.13;5071689;28;20044;-72
2021/08/08 04:02:50;;;;;;;13.27;3.25;;;;;;;17.93;70.93;100345.03;5082084;28;20029;-72
2021/08/08 04:05:15;;;;;;;12.63;3.40;;;;;;;17.83;72.24;100340.44;5067830;28;20157;-72
2021/08/08 04:07:41;;;;;;;10.57;3.22;;;;;;;18.13;70.28;100344.28;5080061;28;20051;-72
2021/08/08 04:10:07;;;;;;;7.00;2.30;;;;;;;18.10;70.51;100352.50;5064139;28;20104;-72
2021/08/08 04:12:32;;;;;;;14.75;3.13;;;;;;;18.08;70.29;100359.72;5074158;28;20040;-72
2021/08/08 04:14:57;;;;;;;7.53;2.90;;;;;;;18.82;67.98;100352.91;5050051;28;20055;-72
2021/08/08 04:17:23;;;;;;;7.28;2.53;;;;;;;18.84;67.46;100354.47;5095724;28;20337;-72
2021/08/08 04:19:48;;;;;;;12.20;2.75;;;;;;;19.11;66.55;100355.78;5097442;28;20098;-72
2021/08/08 04:22:14;;;;;;;12.30;2.80;;;;;;;18.48;68.47;100358.31;5048507;28;20052;-72
2021/08/08 04:24:39;;;;;;;7.32;2.47;;;;;;;18.76;67.21;100352.41;5074177;28;20032;-72
2021/08/08 04:27:05;;;;;;;11.63;2.42;;;;;;;19.10;66.37;100362.91;5072388;28;20024;-72
2021/08/08 04:29:30;;;;;;;12.32;2.80;;;;;;;18.76;66.84;100371.00;5061602;28;20039;-72
2021/08/08 04:31:55;;;;;;;15.50;3.05;;;;;;;18.12;68.51;100373.56;5082896;28;20032;-72
2021/08/08 04:34:21;;;;;;;9.35;2.75;;;;;;;18.69;68.10;100374.28;5082617;28;20095;-72
2021/08/08 04:36:46;;;;;;;11.73;3.50;;;;;;;17.87;70.94;100378.16;5053731;28;20376;-72
2021/08/08 04:39:12;;;;;;;19.15;3.97;;;;;;;17.77;71.70;100380.66;5048223;28;20232;-72
2021/08/08 04:41:37;;;;;;;16.48;3.60;;;;;;;18.38;69.37;100380.25;5064818;28;20097;-72
2021/08/08 04:44:03;;;;;;;13.52;3.30;;;;;;;18.15;70.27;100390.03;5091032;28;20066;-72
2021/08/08 04:46:28;;;;;;;13.50;3.88;;;;;;;17.52;73.05;100396.75;5098941;28;20028;-72
2021/08/08 04:48:54;;;;;;;16.67;3.78;;;;;;;17.87;71.49;100396.69;5063577;28;20029;-72
2021/08/08 04:51:19;;;;;;;13.18;3.80;;;;;;;17.77;72.13;100390.41;5063397;28;20066;-71
2021/08/08 04:53:44;;;;;;;7.10;2.53;;;;;;;18.57;68.66;100384.06;5082176;28;20044;-72
2021/08/08 04:56:10;;;;;;;12.48;3.70;;;;;;;18.70;67.93;100387.41;5088831;28;20027;-72
2021/08/08 04:58:35;;;;;;;13.63;2.97;;;;;;;18.64;68.09;100382.59;5081822;28;20063;-72
2021/08/08 05:01:01;;;;;;;10.95;3.45;;;;;;;18.98;66.82;100398.44;5083566;28;20036;-72
2021/08/08 05:03:26;;;;;;;10.77;3.05;;;;;;;18.20;69.37;100411.72;5066071;28;20035;-72
2021/08/08 05:05:52;;;;;;;15.02;3.67;;;;;;;17.56;72.70;100403.50;5091673;28;20032;-72
2021/08/08 05:08:17;;;;;;;12.43;3.58;;;;;;;18.39;69.11;100399.66;5096189;28;20121;-72
2021/08/08 05:10:42;;;;;;;7.05;2.65;;;;;;;18.88;67.22;100398.34;5101049;28;20052;-72
2021/08/08 05:13:08;;;;;;;9.80;2.75;;;;;;;18.96;66.76;100406.50;5082205;28;20020;-72
2021/08/08 05:15:33;;;;;;;13.07;3.90;;;;;;;18.51;68.36;100408.44;5065107;28;20144;-72
2021/08/08 05:17:59;;;;;;;10.93;3.08;;;;;;;18.70;68.10;100410.44;5070568;28;20051;-72
2021/08/08 05:20:24;;;;;;;9.00;3.58;;;;;;;17.98;70.71;100431.13;5089250;28;20065;-72
2021/08/08 05:22:50;;;;;;;12.15;3.45;;;;;;;18.52;68.50;100418.06;5100326;28;20384;-73
2021/08/08 05:25:15;;;;;;;10.15;3.22;;;;;;;18.41;69.08;100421.59;5100708;28;20323;-72
2021/08/08 05:27:41;;;;;;;14.95;4.25;;;;;;;18.00;70.91;100423.91;5080814;28;20085;-72
2021/08/08 05:30:08;;;;;;;11.32;3.28;;;;;;;18.26;69.19;100428.13;5075994;28;20059;-72
2021/08/08 05:32:33;;;;;;;9.63;3.40;;;;;;;18.27;69.81;100438.59;5060028;28;20040;-72
2021/08/08 05:34:59;;;;;;;7.68;2.80;;;;;;;18.80;67.66;100433.41;5077045;28;20032;-72
2021/08/08 05:37:24;;;;;;;8.98;3.10;;;;;;;19.09;66.32;100430.22;5057976;28;20021;-72
2021/08/08 05:39:49;;;;;;;13.27;3.83;;;;;;;19.41;65.07;100453.25;5083456;28;20040;-72
2021/08/08 05:42:19;;;;;;;16.42;4.13;;;;;;;18.48;68.63;100445.81;5100726;28;20036;-72
2021/08/08 05:44:44;;;;;;;15.77;3.53;;;;;;;19.33;65.38;100439.75;5066017;28;20040;-73
2021/08/08 05:47:09;;;;;;;4.30;1.90;;;;;;;20.30;63.45;100437.66;5080518;28;20058;-71
2021/08/08 05:49:35;;;;;;;8.48;2.47;;;;;;;19.96;65.71;100428.28;5063392;28;20363;-71
2021/08/08 05:52:01;;;;;;;13.73;2.45;;;;;;;19.99;64.74;100428.84;5076872;28;20074;-74
2021/08/08 05:54:27;;;;;;;8.48;2.60;;;;;;;20.80;61.41;100460.75;5091096;28;20166;-74
2021/08/08 05:56:53;;;;;;;12.48;3.22;;;;;;;19.28;66.01;100449.91;5064123;28;20094;-74
2021/08/08 05:59:18;;;;;;;6.85;2.20;;;;;;;20.44;62.41;100449.72;5061934;28;20028;-74
2021/08/08 06:01:44;;;;;;;16.73;3.55;;;;;;;19.69;64.33;100454.41;5100199;28;20040;-74
2021/08/08 06:04:09;;;;;;;12.48;2.67;;;;;;;20.48;62.04;100460.91;5082456;28;20020;-74
2021/08/08 06:06:34;;;;;;;10.13;3.08;;;;;;;20.08;63.23;100461.75;5099115;28;20054;-74
2021/08/08 06:09:00;;;;;;;15.70;3.97;;;;;;;18.95;66.16;100457.03;5058310;28;20032;-74
2021/08/08 06:11:26;;;;;;;9.50;2.65;;;;;;;20.61;61.50;100468.69;5057864;28;20106;-74
2021/08/08 06:13:51;;;;;;;14.40;2.97;;;;;;;19.38;64.83;100474.75;5062468;28;20330;-74
2021/08/08 06:16:16;;;;;;;18.90;4.05;;;;;;;19.33;65.60;100476.94;5085573;28;20046;-73
2021/08/08 06:18:42;;;;;;;19.40;3.97;;;;;;;20.19;62.88;100485.59;5059957;28;20027;-73
2021/08/08 06:21:07;;;;;;;8.85;2.65;;;;;;;20.89;60.51;100481.19;5079289;28;20056;-73
2021/08/08 06:23:33;;;;;;;2.58;1.52;;;;;;;21.25;59.42;100489.50;5062991;28;20238;-74
2021/08/08 06:25:58;;;;;;;8.20;2.60;;;;;;;21.18;59.57;100499.03;5080122;28;20031;-74
2021/08/08 06:28:23;;;;;;;18.08;3.58;;;;;;;19.79;63.03;100498.81;5062356;28;20073;-74
2021/08/08 06:30:49;;;;;;;8.68;2.65;;;;;;;20.20;61.60;100508.53;5063158;28;20212;-74
2021/08/08 06:33:16;;;;;;;10.45;2.65;;;;;;;20.50;61.43;100507.69;5090329;28;20276;-74
2021/08/08 06:35:42;;;;;;;5.03;1.95;;;;;;;21.26;59.27;100508.97;5097469;28;20655;-74
2021/08/08 06:38:07;;;;;;;12.65;3.33;;;;;;;20.20;62.25;100518.34;5074810;28;20036;-74
2021/08/08 06:40:33;;;;;;;6.35;1.95;;;;;;;20.84;59.82;100518.03;5079646;28;20067;-74
2021/08/08 06:43:00;;;;;;;10.77;2.42;;;;;;;21.67;57.60;100531.03;5093690;28;20055;-74
2021/08/08 06:45:25;;;;;;;8.43;1.58;;;;;;;21.35;58.81;100531.28;5044413;28;20052;-73
2021/08/08 06:47:51;;;;;;;4.75;2.22;;;;;;;20.88;59.67;100521.25;5063070;28;20385;-73
2021/08/08 06:50:16;;;;;;;12.25;3.35;;;;;;;20.73;60.25;100530.63;5079716;28;20050;-73
2021/08/08 06:52:41;;;;;;;10.13;2.70;;;;;;;21.22;58.72;100535.03;5092886;28;20036;-73
2021/08/08 06:55:07;;;;;;;9.15;2.58;;;;;;;21.45;58.41;100526.84;5079516;28;20028;-74
2021/08/08 06:57:32;;;;;;;9.10;1.73;;;;;;;21.57;58.01;100539.00;5095496;28;20032;-74
2021/08/08 06:59:58;;;;;;;15.57;3.17;;;;;;;21.28;58.88;100538.97;5096905;28;20067;-74
2021/08/08 07:02:23;;;;;;;13.50;2.53;;;;;;;21.13;59.21;100543.03;5075733;28;20232;-74
2021/08/08 07:04:49;;;;;;;5.63;1.88;;;;;;;21.19;58.88;100547.78;5095378;28;20235;-74
2021/08/08 07:07:17;;;;;;;14.98;2.58;;;;;;;21.17;59.15;100558.56;5081743;28;20030;-74
2021/08/08 07:09:42;;;;;;;7.63;2.28;;;;;;;21.07;59.36;100558.56;5080026;28;20044;-74
2021/08/08 07:12:08;;;;;;;7.30;1.70;;;;;;;20.86;60.10;100558.66;5053831;28;20044;-74
2021/08/08 07:14:35;;;;;;;7.47;2.33;;;;;;;20.69;60.88;100556.66;5071054;28;20048;-73
2021/08/08 07:17:01;;;;;;;6.25;2.38;;;;;;;20.89;60.12;100568.22;5079023;28;20074;-74
2021/08/08 07:19:26;;;;;;;10.70;3.00;;;;;;;21.06;59.67;100570.19;5049160;28;20035;-74
2021/08/08 07:21:52;;;;;;;9.73;2.72;;;;;;;21.32;58.65;100571.50;5073525;28;20052;-73
2021/08/08 07:24:18;;;;;;;13.18;3.60;;;;;;;20.21;62.05;100567.88;5074217;28;20055;-74
2021/08/08 07:26:44;;;;;;;12.18;3.95;;;;;;;20.24;61.60;100576.44;5063012;28;20303;-74
2021/08/08 07:29:10;;;;;;;24.10;5.60;;;;;;;18.19;65.41;100577.03;5081676;28;20256;-74
2021/08/08 07:31:35;;;;;;;9.48;2.55;;;;;;;20.60;60.36;100582.22;5062285;28;20044;-73
2021/08/08 07:34:01;;;;;;;12.82;3.13;;;;;;;20.57;60.71;100590.44;5084923;28;20028;-73
2021/08/08 07:36:26;;;;;;;17.85;3.58;;;;;;;20.81;60.44;100584.84;5050647;28;20386;-74
2021/08/08 07:38:51;;;;;;;21.98;3.40;;;;;;;20.64;60.93;100588.13;5068671;28;20139;-75
2021/08/08 07:41:17;;;;;;;17.55;3.72;;;;;;;19.75;61.84;100581.44;5050547;28;20052;-74
2021/08/08 07:43:42;;;;;;;13.43;3.58;;;;;;;20.82;59.43;100588.34;5064788;28;20044;-75
2021/08/08 07:46:08;;;;;;;19.27;4.55;;;;;;;20.16;62.63;100600.19;5081427;28;20036;-73
2021/08/08 07:48:33;;;;;;;15.23;4.40;;;;;;;20.17;60.34;100590.38;5062520;28;20032;-73
2021/08/08 07:50:59;;;;;;;18.98;4.38;;;;;;;20.36;61.33;100593.16;5055268;28;20035;-72
2021/08/08 07:53:24;;;;;;;25.33;5.30;;;;;;;20.27;61.85;100588.63;5075325;28;20066;-72
2021/08/08 07:55:53;;;;;;;23.85;4.80;;;;;;;20.20;61.54;100603.44;5065021;28;20045;-72
2021/08/08 07:58:19;;;;;;;11.07;4.65;;;;;;;19.68;63.54;100609.47;5052025;28;20029;-72
2021/08/08 08:00:45;;;;;;;22.63;4.57;;;;;;;19.83;61.64;100604.72;5069823;28;20040;-72
2021/08/08 08:03:10;;;;;;;21.98;4.93;;;;;;;19.41;60.53;100604.59;5086169;28;20095;-72
2021/08/08 08:05:36;;;;;;;25.00;4.90;;;;;;;20.01;61.57;100607.66;5088030;28;20313;-72
2021/08/08 08:08:01;;;;;;;20.33;4.65;;;;;;;19.21;63.48;100615.97;5071514;28;20040;-72
2021/08/08 08:10:29;;;;;;;15.15;4.00;;;;;;;20.45;61.13;100604.84;5066496;28;20265;-72
2021/08/08 08:12:54;;;;;;;24.55;4.30;;;;;;;19.88;61.08;100606.97;5064975;28;20335;-72
2021/08/08 08:15:20;;;;;;;8.82;3.40;;;;;;;20.10;61.97;100616.63;5093348;28;20213;-72
2021/08/08 08:17:45;;;;;;;26.10;4.55;;;;;;;20.23;60.80;100616.44;5065344;28;20042;-72
2021/08/08 08:20:11;;;;;;;16.70;3.58;;;;;;;20.65;58.51;100621.75;5087064;28;20041;-72
2021/08/08 08:22:36;;;;;;;17.98;4.07;;;;;;;19.99;60.88;100617.53;5077045;28;20036;-72
2021/08/08 08:25:02;;;;;;;19.10;4.45;;;;;;;19.51;60.78;100621.44;5068552;28;20074;-72
2021/08/08 08:27:27;;;;;;;13.15;4.30;;;;;;;19.54;61.26;100631.00;5062128;28;20044;-72
2021/08/08 08:29:53;;;;;;;19.35;4.53;;;;;;;19.28;61.54;100630.44;5076396;28;20051;-72
2021/08/08 08:32:18;;;;;;;14.20;3.75;;;;;;;20.11;60.93;100626.31;5075187;28;20328;-72
2021/08/08 08:34:43;;;;;;;17.02;3.65;;;;;;;20.07;59.82;100630.22;5085233;28;20244;-72
2021/08/08 08:37:09;;;;;;;17.45;4.25;;;;;;;19.75;60.93;100636.38;5092896;28;20056;-72
2021/08/08 08:39:34;;;;;;;16.98;4.05;;;;;;;19.51;60.48;100641.88;5085402;28;20024;-72
2021/08/08 08:42:01;;;;;;;10.43;3.53;;;;;;;20.49;59.58;100640.81;5087743;28;20042;-72
2021/08/08 08:44:27;;;;;;;17.00;3.70;;;;;;;19.89;60.10;100649.38;5079147;28;20227;-72
2021/08/08 08:46:55;;;;;;;10.15;3.45;;;;;;;20.44;60.04;100645.69;5041028;28;20024;-72
2021/08/08 08:49:21;;;;;;;14.70;3.85;;;;;;;20.18;60.44;100648.75;5073462;28;20086;-72
2021/08/08 08:51:52;;;;;;;17.60;4.30;;;;;;;20.19;59.91;100650.41;5068139;28;20040;-72
2021/08/08 08:54:18;;;;;;;11.10;3.10;;;;;;;20.83;58.57;100643.25;5056947;28;20098;-72
2021/08/08 08:56:43;;;;;;;14.45;3.97;;;;;;;19.91;61.13;100655.38;5065226;28;20356;-72
2021/08/08 08:59:09;;;;;;;15.57;3.97;;;;;;;19.65;59.95;100654.03;5042003;28;20068;-72
2021/08/08 09:01:34;;;;;;;13.73;3.58;;;;;;;20.29;59.97;100651.34;5069947;28;20403;-72
2021/08/08 09:04:00;;;;;;;14.15;3.97;;;;;;;20.80;57.98;100651.50;5077453;28;20227;-72
2021/08/08 09:06:25;;;;;;;9.27;3.17;;;;;;;20.90;57.67;100647.91;5076787;28;20032;-72
2021/08/08 09:08:50;;;;;;;11.43;3.22;;;;;;;20.82;58.06;100654.88;5073197;28;20050;-72
2021/08/08 09:11:16;;;;;;;13.05;3.45;;;;;;;20.90;57.62;100665.69;5059785;28;20042;-72
2021/08/08 09:13:55;;;;;;;9.45;2.97;;;;;;;20.36;56.67;100662.31;5063744;28;20228;-72
2021/08/08 09:16:25;;;;;;;12.98;3.90;;;;;;;20.58;58.55;100661.31;5074653;28;20036;-72
2021/08/08 09:18:54;;;;;;;15.43;3.58;;;;;;;20.55;57.29;100672.22;5061860;28;20100;-72
2021/08/08 09:21:20;;;;;;;11.65;3.38;;;;;;;20.56;58.22;100665.09;5056975;28;20219;-72
2021/08/08 09:23:53;;;;;;;13.10;3.15;;;;;;;19.94;58.25;100679.06;5033664;28;20075;-72
2021/08/08 09:26:35;;;;;;;10.68;3.13;;;;;;;19.98;58.79;100686.78;5052624;28;20028;-72
2021/08/08 09:29:14;;;;;;;13.35;3.83;;;;;;;20.60;58.20;100693.13;5057047;28;20160;-72
2021/08/08 09:31:47;;;;;;;19.60;4.40;;;;;;;20.53;57.88;100693.63;5074237;28;20139;-71
2021/08/08 09:34:29;;;;;;;18.17;3.60;;;;;;;20.49;57.64;100694.84;5056664;28;20035;-71
2021/08/08 09:36:56;;;;;;;11.40;3.30;;;;;;;20.61;57.59;100701.00;5060694;28;20032;-71
2021/08/08 09:39:35;;;;;;;12.55;2.90;;;;;;;19.97;59.01;100693.91;5062238;28;20046;-71
2021/08/08 09:42:11;;;;;;;15.68;3.40;;;;;;;20.26;57.56;100710.09;5067716;28;20085;-71
2021/08/08 09:44:37;;;;;;;22.67;3.58;;;;;;;20.53;58.68;100706.91;5091349;28;20319;-71
2021/08/08 09:47:04;;;;;;;14.77;3.17;;;;;;;20.43;56.78;100705.16;5054133;28;20016;-71
2021/08/08 09:49:29;;;;;;;10.70;3.33;;;;;;;21.09;56.56;100711.03;5061640;28;20113;-71
2021/08/08 09:51:54;;;;;;;13.38;3.42;;;;;;;20.75;56.76;100707.78;5070175;28;20051;-71
2021/08/08 09:54:20;;;;;;;11.10;3.40;;;;;;;20.89;56.98;100707.44;5072419;28;20342;-71
2021/08/08 09:56:56;;;;;;;15.82;3.20;;;;;;;21.08;55.88;100716.50;5073202;28;20047;-71
2021/08/08 09:59:22;;;;;;;14.27;3.45;;;;;;;20.50;56.23;100712.53;5075360;28;20080;-71
2021/08/08 10:01:47;;;;;;;12.63;3.25;;;;;;;20.97;56.90;100712.09;5072338;28;20048;-71
2021/08/08 10:04:12;;;;;;;11.63;3.40;;;;;;;20.84;57.70;100722.13;5095428;28;20027;-71
2021/08/08 10:06:38;;;;;;;10.93;3.08;;;;;;;20.46;57.78;100735.00;5092265;28;20028;-71
2021/08/08 10:09:03;;;;;;;11.52;3.45;;;;;;;21.12;55.19;100725.91;5095999;28;20107;-71
2021/08/08 10:11:29;;;;;;;10.55;2.92;;;;;;;21.67;52.54;100728.22;5076112;28;20027;-71
2021/08/08 10:14:03;;;;;;;9.82;2.95;;;;;;;22.19;52.36;100720.84;5062787;28;20096;-71
2021/08/08 10:16:31;;;;;;;12.55;3.47;;;;;;;21.15;54.55;100736.28;5062964;28;20055;-71
2021/08/08 10:19:00;;;;;;;8.85;2.78;;;;;;;20.77;55.65;100726.28;5062429;28;20043;-71
2021/08/08 10:21:26;;;;;;;8.15;3.00;;;;;;;21.84;53.83;100721.38;5058326;28;20037;-72
2021/08/08 10:23:53;;;;;;;12.60;3.10;;;;;;;21.58;53.29;100734.38;5055217;28;20035;-71
2021/08/08 10:26:19;;;;;;;9.03;2.93;;;;;;;21.92;53.29;100731.31;5055201;28;20017;-71
2021/08/08 10:28:47;;;;;;;11.05;2.97;;;;;;;21.30;54.31;100736.75;5062852;28;20067;-71
2021/08/08 10:31:17;;;;;;;13.23;3.20;;;;;;;20.98;55.14;100735.09;5048820;28;20082;-71
2021/08/08 10:33:50;;;;;;;9.05;2.83;;;;;;;21.38;54.19;100733.44;5065110;28;20220;-71
2021/08/08 10:36:25;;;;;;;12.23;3.20;;;;;;;20.80;55.48;100744.66;5050794;28;20040;-71
2021/08/08 10:38:51;;;;;;;10.05;3.17;;;;;;;21.37;51.22;100739.72;5069463;28;20063;-72
2021/08/08 10:41:19;;;;;;;5.88;2.50;;;;;;;21.54;51.85;100736.47;5051902;28;20370;-72
2021/08/08 10:43:45;;;;;;;7.80;2.78;;;;;;;22.64;50.47;100742.59;5049968;28;20104;-72
2021/08/08 10:46:11;;;;;;;4.25;2.53;;;;;;;22.49;49.63;100748.34;5053699;28;20281;-72
2021/08/08 10:48:38;;;;;;;8.18;2.83;;;;;;;23.48;48.82;100745.25;5074726;28;20040;-71
2021/08/08 10:51:14;;;;;;;6.57;2.70;;;;;;;22.19;50.45;100746.66;5073686;28;20059;-71
2021/08/08 10:53:40;;;;;;;13.48;3.10;;;;;;;21.25;53.29;100750.50;5080665;28;20089;-73
2021/08/08 10:56:07;;;;;;;10.77;2.50;;;;;;;20.19;55.15;100742.63;5043433;28;20267;-72
2021/08/08 10:58:36;;;;;;;7.97;2.95;;;;;;;20.51;55.18;100739.94;5070990;28;20025;-71
2021/08/08 11:01:13;;;;;;;10.23;2.70;;;;;;;21.56;52.86;100747.00;5064334;28;20067;-71
2021/08/08 11:03:59;;;;;;;6.40;2.47;;;;;;;20.40;55.16;100737.34;5060342;28;20086;-75
2021/08/08 11:06:25;;;;;;;11.50;3.00;;;;;;;20.09;56.06;100737.25;5052055;28;20093;-74
2021/08/08 11:08:57;;;;;;;13.25;3.25;;;;;;;19.99;56.08;100745.13;5059340;28;20052;-75
2021/08/08 11:11:31;;;;;;;7.90;2.38;;;;;;;19.23;60.43;100746.78;5035526;28;20028;-73
2021/08/08 11:14:15;;;;;;;7.63;2.88;;;;;;;19.46;59.62;100755.59;5067397;28;20036;-74
2021/08/08 11:16:42;;;;;;;14.30;3.17;;;;;;;19.47;60.15;100754.63;5053661;28;20493;-74
2021/08/08 11:19:08;;;;;;;6.75;2.92;;;;;;;19.80;59.49;100759.06;5054444;28;20092;-74